Time;durP1;ratioP1;P1;durP2;ratioP2;P2;SDS_P1;SDS_P2;PMS_P1;PMS_P2;Temp;Humidity;BMP_temperature;BMP_pressure;BME280_temperature;BME280_humidity;BME280_pressure;Samples;Min_cycle;Max_cycle;Signal;HPM_P1;HPM_P2
2022/05/08 00:12:44;;;;;;;13.55;8.40;;;;;;;14.12;99.14;100948.86;713073;1174;114827;-75
2022/05/08 00:27:46;;;;;;;16.20;9.63;;;;;;;14.00;98.25;100961.38;713029;1174;115758;-75
2022/05/08 00:42:49;;;;;;;16.37;9.47;;;;;;;13.82;98.77;100948.09;713626;1174;114121;-75
2022/05/08 00:57:51;;;;;;;13.43;7.83;;;;;;;13.69;98.06;100950.19;713803;1174;114233;-85
2022/05/08 01:12:53;;;;;;;12.60;8.43;;;;;;;13.49;96.91;100958.09;714740;1174;115725;-82
2022/05/08 01:27:56;;;;;;;13.50;8.88;;;;;;;13.28;95.88;100956.36;715301;1174;115084;-83
2022/05/08 01:42:58;;;;;;;16.23;8.35;;;;;;;13.07;96.33;100956.46;714603;1174;115722;-82
2022/05/08 01:58:01;;;;;;;17.93;8.97;;;;;;;13.07;95.87;100966.17;713674;1174;114051;-84
2022/05/08 02:13:07;;;;;;;11.53;7.30;;;;;;;12.77;95.53;100973.95;714043;1174;114394;-83
2022/05/08 02:28:09;;;;;;;12.97;7.17;;;;;;;12.65;96.01;100960.06;713600;1174;114996;-84
2022/05/08 02:43:11;;;;;;;20.15;9.63;;;;;;;12.69;96.31;100968.53;713881;1174;115003;-84
2022/05/08 02:58:32;;;;;;;13.90;8.20;;;;;;;12.86;96.90;100976.78;713331;1174;115007;-84
2022/05/08 03:13:39;;;;;;;11.93;6.78;;;;;;;12.72;96.48;100978.81;713242;1174;114513;-84
2022/05/08 03:28:43;;;;;;;18.05;9.48;;;;;;;12.70;96.98;100995.70;713710;1174;114126;-83
2022/05/08 03:43:47;;;;;;;11.60;6.98;;;;;;;12.65;97.94;101003.98;713535;1174;114285;-83
2022/05/08 03:58:49;;;;;;;23.02;11.73;;;;;;;12.70;97.51;101009.69;714346;1173;114970;-83
2022/05/08 04:13:51;;;;;;;18.53;9.73;;;;;;;12.88;97.74;101019.59;714197;1173;114233;-83
2022/05/08 04:28:53;;;;;;;12.93;7.83;;;;;;;13.11;97.45;101031.61;714151;1174;114667;-81
2022/05/08 04:43:59;;;;;;;12.65;7.68;;;;;;;13.22;97.27;101038.56;713859;1173;114998;-85
2022/05/08 04:59:03;;;;;;;12.05;7.20;;;;;;;13.57;96.49;101041.76;713821;1174;114936;-75
2022/05/08 05:14:06;;;;;;;12.03;7.00;;;;;;;13.81;96.10;101051.91;713324;1174;115201;-80
2022/05/08 05:29:08;;;;;;;11.55;6.43;;;;;;;14.27;95.20;101046.91;713701;1174;114732;-77
2022/05/08 05:44:11;;;;;;;10.65;5.55;;;;;;;14.67;91.91;101061.70;713235;1174;114825;-75
2022/05/08 05:59:13;;;;;;;7.93;5.73;;;;;;;15.04;90.17;101057.42;713887;1174;115886;-78
2022/05/08 06:14:36;;;;;;;11.15;6.08;;;;;;;15.11;89.75;101071.70;713987;1173;114861;-76
2022/05/08 06:29:39;;;;;;;14.53;8.05;;;;;;;15.22;89.42;101070.70;713544;1174;114055;-77
2022/05/08 06:44:41;;;;;;;8.73;6.33;;;;;;;15.72;88.34;101082.67;713342;1174;114736;-80
2022/05/08 07:15:07;;;;;;;10.68;6.00;;;;;;;17.15;85.05;101098.52;713485;1173;114194;-77
2022/05/08 07:30:10;;;;;;;11.60;6.63;;;;;;;17.56;82.74;101109.28;713737;1174;114862;-76
2022/05/08 07:45:13;;;;;;;9.65;5.80;;;;;;;18.00;79.78;101108.23;713565;1174;114588;-79
2022/05/08 08:00:18;;;;;;;14.78;7.85;;;;;;;18.20;76.49;101116.70;714123;1174;115733;-77
2022/05/08 08:15:20;;;;;;;7.55;4.50;;;;;;;19.07;74.68;101119.64;713456;1174;115282;-77
2022/05/08 08:30:23;;;;;;;8.83;4.60;;;;;;;19.92;71.12;101128.73;713599;1174;114553;-79
2022/05/08 09:00:50;;;;;;;5.10;2.18;;;;;;;20.98;65.02;101128.02;713704;1173;114812;-77
2022/05/08 09:16:07;;;;;;;4.20;2.15;;;;;;;20.85;61.49;101118.01;716066;1174;114063;-74
2022/05/08 09:31:16;;;;;;;5.20;2.58;;;;;;;20.19;61.27;101129.23;713486;1174;115202;-77
2022/05/08 09:46:20;;;;;;;3.75;1.98;;;;;;;21.14;59.53;101126.18;713924;1174;114696;-80
2022/05/08 10:01:24;;;;;;;3.40;2.25;;;;;;;21.63;57.03;101130.09;714573;1173;114077;-80
2022/05/08 10:16:50;;;;;;;4.05;1.93;;;;;;;22.59;55.39;101127.13;714045;1174;114004;-72
2022/05/08 10:31:54;;;;;;;2.23;2.00;;;;;;;22.75;55.02;101124.17;714013;1174;114059;-73
2022/05/08 10:47:46;;;;;;;5.20;2.00;;;;;;;23.47;54.49;101109.73;713505;1174;114412;-73
2022/05/08 11:03:02;;;;;;;5.43;2.20;;;;;;;24.36;54.16;101116.71;714023;1173;115488;-80
2022/05/08 11:18:09;;;;;;;4.43;2.78;;;;;;;23.87;52.88;101109.83;714212;1174;114809;-77
2022/05/08 11:48:40;;;;;;;2.55;1.75;;;;;;;25.46;51.69;101107.19;718553;1174;113961;-77
2022/05/08 12:03:43;;;;;;;4.90;1.95;;;;;;;26.52;49.72;101098.59;713535;1174;114008;-77
2022/05/08 12:19:11;;;;;;;4.55;1.98;;;;;;;25.17;48.34;101103.17;714133;1173;114242;-76
2022/05/08 12:34:14;;;;;;;6.15;2.20;;;;;;;25.11;47.33;101098.64;714298;1174;115434;-78
2022/05/08 12:49:16;;;;;;;4.85;1.85;;;;;;;24.70;46.03;101097.92;713943;1174;114566;-77
2022/05/08 13:04:19;;;;;;;5.83;2.48;;;;;;;24.23;45.01;101087.20;713713;1174;115329;-70
2022/05/08 13:19:21;;;;;;;4.65;1.90;;;;;;;25.91;43.19;101090.18;714088;1174;115561;-71
2022/05/08 13:34:28;;;;;;;6.13;1.60;;;;;;;26.93;42.15;101099.03;713901;1173;114740;-72
2022/05/08 13:49:31;;;;;;;3.68;1.53;;;;;;;26.37;39.86;101097.07;713861;1174;114500;-77
2022/05/08 14:04:33;;;;;;;4.65;1.68;;;;;;;26.88;39.23;101088.92;713833;1174;115304;-74
2022/05/08 14:19:35;;;;;;;3.48;1.95;;;;;;;31.26;37.77;101084.28;713348;1174;114869;-76
2022/05/08 14:49:59;;;;;;;4.78;1.88;;;;;;;28.10;36.54;101086.26;713732;1174;115508;-75
2022/05/08 15:05:02;;;;;;;3.80;1.90;;;;;;;26.67;40.55;101095.53;713590;1174;114197;-76
2022/05/08 15:20:07;;;;;;;7.88;1.80;;;;;;;25.47;41.99;101121.43;714142;1174;114828;-75
2022/05/08 15:35:10;;;;;;;5.37;1.87;;;;;;;24.66;42.81;101132.38;713476;1173;115400;-76
2022/05/08 15:50:13;;;;;;;4.90;1.90;;;;;;;24.14;43.39;101150.08;713290;1174;114650;-75
2022/05/08 16:05:16;;;;;;;5.55;2.43;;;;;;;23.48;43.74;101167.59;713742;1174;114203;-77
2022/05/08 16:35:41;;;;;;;5.13;2.75;;;;;;;21.84;43.99;101209.41;713719;1174;114842;-76
2022/05/08 16:50:44;;;;;;;4.60;1.90;;;;;;;21.48;43.82;101205.66;714159;1173;113999;-73
2022/05/08 17:05:47;;;;;;;7.35;2.63;;;;;;;20.94;44.15;101209.39;713381;1173;114823;-72
2022/05/08 17:20:51;;;;;;;5.35;2.30;;;;;;;20.31;45.78;101238.87;713705;1174;113976;-79
2022/05/08 17:36:00;;;;;;;11.13;2.90;;;;;;;19.49;47.26;101250.66;713942;1174;114077;-79
2022/05/08 17:51:02;;;;;;;21.50;11.73;;;;;;;18.83;48.95;101260.53;714151;1173;114918;-75
2022/05/08 18:06:06;;;;;;;44.13;22.68;;;;;;;17.95;49.29;101289.23;713710;1174;115586;-74
2022/05/08 18:21:12;;;;;;;12.20;5.10;;;;;;;17.10;51.24;101322.50;713671;1174;115959;-71
2022/05/08 18:36:16;;;;;;;10.00;5.73;;;;;;;16.07;55.83;101375.62;713714;1174;115659;-71
2022/05/08 18:51:19;;;;;;;9.68;5.63;;;;;;;15.35;58.97;101390.20;713531;1167;114522;-72
2022/05/08 19:06:21;;;;;;;16.28;8.38;;;;;;;14.71;62.94;101416.97;713416;1174;114829;-74
2022/05/08 19:21:24;;;;;;;14.27;7.53;;;;;;;14.18;65.57;101441.73;713521;1174;114331;-77
2022/05/08 19:51:48;;;;;;;22.50;11.85;;;;;;;13.62;69.07;101471.91;714826;1174;114395;-74
2022/05/08 20:06:50;;;;;;;21.08;10.05;;;;;;;13.45;70.05;101489.93;713589;1173;115085;-74
2022/05/08 20:22:03;;;;;;;21.50;11.63;;;;;;;13.25;71.53;101511.74;713275;1174;115507;-74
2022/05/08 20:37:08;;;;;;;21.55;11.60;;;;;;;12.95;72.50;101531.67;713076;1174;117820;-74
2022/05/08 20:52:10;;;;;;;22.45;10.30;;;;;;;12.73;74.20;101537.77;713370;1174;115726;-75
2022/05/08 21:22:33;;;;;;;16.13;8.13;;;;;;;12.42;75.15;101548.86;713428;1174;114453;-74
2022/05/08 21:37:36;;;;;;;14.90;7.08;;;;;;;12.28;75.75;101570.94;713267;1173;114224;-75
2022/05/08 21:52:39;;;;;;;13.17;6.30;;;;;;;12.02;75.33;101580.77;714049;1174;114361;-74
2022/05/08 22:07:41;;;;;;;10.53;4.37;;;;;;;11.84;74.45;101596.08;713565;1174;116062;-75
2022/05/08 22:22:44;;;;;;;8.83;3.75;;;;;;;11.53;72.69;101605.33;713267;1174;115899;-74
2022/05/08 22:37:46;;;;;;;5.60;3.20;;;;;;;11.33;71.30;101615.45;713256;1174;114667;-75
2022/05/08 22:52:48;;;;;;;7.85;3.38;;;;;;;11.02;69.94;101632.50;713596;1173;114035;-74
2022/05/08 23:07:51;;;;;;;6.55;3.43;;;;;;;10.89;69.15;101629.89;712972;1174;113851;-77
2022/05/08 23:22:55;;;;;;;4.65;2.10;;;;;;;10.68;68.92;101653.15;713177;1174;114140;-74
2022/05/08 23:37:58;;;;;;;4.08;2.30;;;;;;;10.36;68.17;101662.23;713018;1174;115065;-74
2022/05/08 23:53:00;;;;;;;5.13;2.08;;;;;;;10.15;66.61;101672.30;713435;1174;113987;-75
